createdAt,value
2023-04-17T00:02:11.025Z,34.83
2023-04-17T00:04:37.795Z,31.10
2023-04-17T00:07:04.457Z,33.72
2023-04-17T00:09:31.045Z,26.92
2023-04-17T00:11:57.542Z,29.90
2023-04-17T00:14:24.098Z,29.60
2023-04-17T00:16:52.088Z,29.90
2023-04-17T00:19:18.664Z,27.15
2023-04-17T00:21:45.248Z,29.92
2023-04-17T00:24:11.799Z,28.63
2023-04-17T00:26:38.321Z,30.33
2023-04-17T00:29:05.075Z,27.02
2023-04-17T00:31:31.572Z,28.42
2023-04-17T00:33:59.402Z,29.15
2023-04-17T00:36:25.886Z,30.17
2023-04-17T00:38:52.379Z,25.58
2023-04-17T00:41:18.833Z,30.58
2023-04-17T00:43:45.354Z,27.05
2023-04-17T00:46:11.873Z,33.03
2023-04-17T00:48:39.234Z,28.40
2023-04-17T00:51:07.856Z,29.38
2023-04-17T00:53:35.300Z,32.20
2023-04-17T00:56:03.559Z,26.25
2023-04-17T00:58:30.810Z,30.02
2023-04-17T01:00:57.572Z,33.25
2023-04-17T01:03:24.244Z,32.97
2023-04-17T01:05:51.927Z,26.45
2023-04-17T01:08:19.977Z,27.50
2023-04-17T01:10:46.929Z,27.27
2023-04-17T01:13:13.470Z,26.50
2023-04-17T01:15:40.067Z,26.90
2023-04-17T01:18:06.736Z,24.05
2023-04-17T01:20:33.606Z,26.27
2023-04-17T01:23:00.949Z,25.42
2023-04-17T01:25:28.930Z,26.40
2023-04-17T01:27:55.527Z,26.85
2023-04-17T01:30:22.293Z,26.40
2023-04-17T01:32:48.862Z,30.20
2023-04-17T01:35:15.518Z,29.38
2023-04-17T01:37:42.041Z,27.02
2023-04-17T01:40:09.755Z,27.08
2023-04-17T01:42:37.623Z,28.75
2023-04-17T01:45:05.388Z,27.83
2023-04-17T01:47:31.936Z,29.08
2023-04-17T01:49:58.471Z,25.92
2023-04-17T01:52:25.053Z,34.97
2023-04-17T01:54:51.572Z,28.27
2023-04-17T01:57:18.138Z,25.70
2023-04-17T01:59:45.979Z,27.40
2023-04-17T02:02:12.541Z,29.40
2023-04-17T02:04:39.190Z,30.42
2023-04-17T02:07:05.753Z,27.92
2023-04-17T02:09:32.287Z,27.08
2023-04-17T02:11:58.801Z,26.70
2023-04-17T02:14:25.296Z,28.38
2023-04-17T02:16:53.170Z,26.88
2023-04-17T02:19:19.645Z,27.08
2023-04-17T02:21:46.118Z,33.65
2023-04-17T02:24:12.635Z,30.05
2023-04-17T02:26:39.201Z,27.02
2023-04-17T02:29:05.665Z,26.60
2023-04-17T02:31:32.234Z,27.42
2023-04-17T02:34:00.155Z,25.83
2023-04-17T02:36:26.620Z,30.63
2023-04-17T02:38:53.088Z,28.60
2023-04-17T02:41:19.571Z,25.40
2023-04-17T02:43:46.063Z,31.25
2023-04-17T02:46:12.644Z,31.52
2023-04-17T02:48:39.213Z,28.80
2023-04-17T02:51:07.149Z,31.40
2023-04-17T02:53:33.667Z,29.08
2023-04-17T02:56:00.186Z,31.02
2023-04-17T02:58:26.671Z,29.85
2023-04-17T03:01:00.323Z,32.05
2023-04-17T03:03:27.062Z,29.25
2023-04-17T03:05:53.659Z,28.75
2023-04-17T03:08:21.477Z,31.83
2023-04-17T03:10:47.950Z,26.15
2023-04-17T03:13:14.438Z,29.52
2023-04-17T03:15:41.128Z,30.77
2023-04-17T03:18:07.706Z,29.67
2023-04-17T03:20:34.245Z,29.15
2023-04-17T03:23:00.760Z,29.10
2023-04-17T03:25:28.583Z,30.02
2023-04-17T03:27:55.070Z,31.90
2023-04-17T03:30:21.610Z,28.55
2023-04-17T03:32:48.089Z,28.98
2023-04-17T03:35:14.595Z,31.38
2023-04-17T03:37:41.103Z,36.08
2023-04-17T03:40:08.456Z,32.67
2023-04-17T03:42:36.322Z,30.88
2023-04-17T03:45:02.794Z,31.75
2023-04-17T03:47:29.388Z,34.95
2023-04-17T03:49:55.997Z,34.58
2023-04-17T03:52:22.504Z,35.17
2023-04-17T03:54:48.960Z,35.08
2023-04-17T03:57:15.562Z,36.38
2023-04-17T03:59:43.422Z,31.95
2023-04-17T04:02:10.040Z,36.28
2023-04-17T04:04:36.710Z,36.00
2023-04-17T04:07:03.284Z,33.90
2023-04-17T04:09:29.767Z,32.70
2023-04-17T04:11:56.323Z,38.38
2023-04-17T04:14:22.842Z,34.92
2023-04-17T04:16:50.662Z,34.90
2023-04-17T04:19:17.132Z,36.53
2023-04-17T04:21:43.714Z,38.90
2023-04-17T04:24:10.452Z,35.80
2023-04-17T04:26:36.928Z,35.38
2023-04-17T04:29:03.437Z,38.58
2023-04-17T04:31:30.331Z,40.28
2023-04-17T04:33:59.336Z,39.72
2023-04-17T04:36:25.782Z,41.50
2023-04-17T04:38:52.303Z,38.65
2023-04-17T04:41:18.768Z,47.55
2023-04-17T04:43:45.244Z,43.65
2023-04-17T04:46:11.815Z,47.33
2023-04-17T04:48:39.389Z,37.97
2023-04-17T04:51:09.294Z,43.95
2023-04-17T04:53:35.752Z,39.83
2023-04-17T04:56:02.336Z,41.53
2023-04-17T04:58:28.807Z,42.67
2023-04-17T05:00:55.405Z,40.90
2023-04-17T05:03:22.104Z,43.20
2023-04-17T05:05:48.790Z,40.85
2023-04-17T05:08:16.582Z,39.08
2023-04-17T05:10:43.106Z,41.05
2023-04-17T05:13:09.610Z,40.75
2023-04-17T05:15:36.111Z,43.63
2023-04-17T05:18:02.664Z,44.15
2023-04-17T05:20:29.271Z,41.42
2023-04-17T05:22:55.758Z,39.03
2023-04-17T05:25:23.618Z,41.33
2023-04-17T05:27:50.151Z,48.42
2023-04-17T05:30:16.630Z,40.75
2023-04-17T05:32:43.113Z,40.15
2023-04-17T05:35:09.912Z,40.35
2023-04-17T05:37:36.416Z,36.97
2023-04-17T05:40:03.196Z,39.13
2023-04-17T05:42:31.024Z,38.67
2023-04-17T05:44:57.495Z,34.67
2023-04-17T05:47:24.026Z,33.63
2023-04-17T05:49:50.520Z,36.05
2023-04-17T05:52:17.452Z,37.17
2023-04-17T05:54:44.196Z,34.63
2023-04-17T05:57:10.688Z,33.75
2023-04-17T05:59:38.653Z,36.05
2023-04-17T06:02:05.251Z,33.45
2023-04-17T06:04:32.035Z,41.58
2023-04-17T06:06:58.844Z,39.13
2023-04-17T06:09:25.893Z,38.25
2023-04-17T06:11:52.458Z,35.40
2023-04-17T06:14:18.976Z,41.90
2023-04-17T06:16:46.872Z,37.88
2023-04-17T06:19:13.638Z,36.60
2023-04-17T06:21:40.302Z,33.90
2023-04-17T06:24:08.524Z,34.45
2023-04-17T06:26:34.995Z,37.38
2023-04-17T06:29:01.481Z,35.90
2023-04-17T06:31:28.110Z,34.05
2023-04-17T06:33:56.019Z,38.17
2023-04-17T06:36:22.557Z,36.92
2023-04-17T06:38:49.068Z,38.13
2023-04-17T06:41:15.585Z,39.38
2023-04-17T06:43:42.085Z,34.90
2023-04-17T06:46:08.596Z,35.58
2023-04-17T06:48:35.093Z,36.58
2023-04-17T06:51:02.933Z,35.65
2023-04-17T06:53:29.458Z,36.28
2023-04-17T06:55:55.976Z,39.58
2023-04-17T06:58:22.471Z,34.42
2023-04-17T07:00:48.990Z,37.80
2023-04-17T07:03:15.668Z,36.58
2023-04-17T07:05:44.408Z,37.60
2023-04-17T07:08:12.342Z,41.50
2023-04-17T07:10:38.901Z,37.38
2023-04-17T07:13:05.395Z,34.75
2023-04-17T07:15:31.914Z,36.20
2023-04-17T07:17:58.467Z,34.65
2023-04-17T07:20:24.979Z,38.38
2023-04-17T07:22:51.470Z,36.08
2023-04-17T07:25:19.367Z,33.58
2023-04-17T07:27:45.861Z,35.65
2023-04-17T07:30:13.023Z,34.08
2023-04-17T07:32:39.536Z,32.80
2023-04-17T07:35:06.800Z,35.40
2023-04-17T07:37:34.524Z,31.85
2023-04-17T07:40:01.090Z,38.17
2023-04-17T07:42:28.950Z,31.48
2023-04-17T07:44:55.956Z,34.55
2023-04-17T07:47:22.452Z,34.65
2023-04-17T07:49:49.224Z,34.85
2023-04-17T07:52:15.793Z,36.53
2023-04-17T07:54:42.280Z,30.48
2023-04-17T07:57:08.745Z,31.23
2023-04-17T07:59:36.605Z,29.98
2023-04-17T08:02:03.282Z,32.08
2023-04-17T08:04:30.107Z,30.75
2023-04-17T08:06:56.716Z,37.25
2023-04-17T08:09:23.272Z,29.13
2023-04-17T08:11:57.159Z,29.13
2023-04-17T08:14:24.840Z,30.15
2023-04-17T08:16:52.804Z,33.80
2023-04-17T08:19:19.400Z,36.10
2023-04-17T08:21:47.725Z,36.45
2023-04-17T08:24:14.265Z,30.42
2023-04-17T08:26:40.767Z,32.58
2023-04-17T08:29:07.300Z,34.20
2023-04-17T08:31:33.903Z,29.05
2023-04-17T08:34:10.836Z,31.65
2023-04-17T08:36:40.006Z,29.67
2023-04-17T08:39:06.593Z,35.25
2023-04-17T08:41:39.317Z,33.83
2023-04-17T08:44:05.772Z,30.30
2023-04-17T08:46:32.426Z,33.28
2023-04-17T08:48:58.958Z,30.90
2023-04-17T08:51:26.813Z,34.80
2023-04-17T08:53:53.400Z,36.95
2023-04-17T08:56:19.953Z,34.75
2023-04-17T08:58:46.471Z,35.88
2023-04-17T09:01:14.221Z,32.63
2023-04-17T09:03:42.474Z,34.58
2023-04-17T09:06:09.211Z,32.78
2023-04-17T09:08:37.804Z,31.63
2023-04-17T09:11:04.969Z,36.35
2023-04-17T09:13:39.857Z,35.30
2023-04-17T09:16:08.409Z,34.22
2023-04-17T09:18:36.534Z,32.70
2023-04-17T09:21:04.378Z,32.38
2023-04-17T09:23:32.333Z,31.83
2023-04-17T09:26:10.705Z,36.17
2023-04-17T09:28:38.063Z,32.33
2023-04-17T09:31:06.520Z,33.72
2023-04-17T09:33:33.078Z,33.92
2023-04-17T09:36:21.852Z,34.78
2023-04-17T09:38:48.804Z,31.45
2023-04-17T09:41:26.800Z,31.48
2023-04-17T09:43:54.470Z,34.17
2023-04-17T09:46:34.847Z,37.20
2023-04-17T09:49:07.568Z,31.48
2023-04-17T09:51:34.589Z,33.63
2023-04-17T09:54:02.289Z,33.78
2023-04-17T09:56:30.308Z,33.53
2023-04-17T09:58:56.966Z,32.85
2023-04-17T10:01:24.275Z,31.17
2023-04-17T10:03:51.059Z,35.85
2023-04-17T10:06:18.577Z,35.50
2023-04-17T10:08:45.302Z,31.15
2023-04-17T10:11:12.956Z,36.35
2023-04-17T10:13:44.976Z,32.22
2023-04-17T10:16:11.582Z,30.55
2023-04-17T10:18:38.171Z,36.67
2023-04-17T10:21:20.615Z,28.40
2023-04-17T10:23:47.344Z,32.78
2023-04-17T10:26:40.812Z,30.10
2023-04-17T10:29:08.825Z,33.60
2023-04-17T10:32:24.490Z,37.80
2023-04-17T10:34:51.979Z,33.22
2023-04-17T10:37:18.639Z,29.98
2023-04-17T10:39:55.936Z,28.40
2023-04-17T10:42:23.830Z,28.55
2023-04-17T10:44:58.537Z,30.33
2023-04-17T10:47:31.062Z,30.40
2023-04-17T10:49:58.466Z,26.45
2023-04-17T10:52:38.999Z,29.35
2023-04-17T10:55:07.263Z,29.35
2023-04-17T10:57:52.894Z,33.53
2023-04-17T11:00:29.623Z,30.92
2023-04-17T11:02:56.391Z,28.73
2023-04-17T11:05:22.952Z,34.92
2023-04-17T11:07:49.721Z,32.75
2023-04-17T11:10:16.388Z,31.73
2023-04-17T11:12:45.781Z,29.23
2023-04-17T11:15:12.296Z,27.88
2023-04-17T11:17:46.316Z,38.17
2023-04-17T11:20:13.006Z,25.13
2023-04-17T11:22:39.766Z,27.33
2023-04-17T11:25:06.880Z,25.42
2023-04-17T11:27:33.404Z,25.17
2023-04-17T11:29:59.901Z,28.98
2023-04-17T11:32:26.429Z,28.30
2023-04-17T11:34:54.968Z,23.48
2023-04-17T11:37:21.501Z,22.67
2023-04-17T11:39:48.095Z,24.17
2023-04-17T11:42:24.997Z,24.92
2023-04-17T11:44:51.439Z,25.83
2023-04-17T11:47:19.613Z,25.77
2023-04-17T11:49:47.005Z,19.98
2023-04-17T11:52:17.590Z,22.90
2023-04-17T11:54:44.459Z,22.52
2023-04-17T11:57:12.896Z,22.42
2023-04-17T11:59:41.075Z,22.15
2023-04-17T12:02:08.670Z,22.35
2023-04-17T12:04:36.463Z,21.52
2023-04-17T12:07:04.351Z,19.73
2023-04-17T12:09:32.778Z,22.65
2023-04-17T12:12:00.058Z,20.52
2023-04-17T12:14:26.641Z,18.08
2023-04-17T12:16:53.353Z,20.48
2023-04-17T12:19:19.872Z,21.83
2023-04-17T12:21:46.485Z,16.73
2023-04-17T12:24:13.400Z,25.83
2023-04-17T12:26:47.086Z,20.73
2023-04-17T12:31:40.272Z,21.20
2023-04-17T12:34:06.844Z,18.10
2023-04-17T12:36:33.857Z,19.13
2023-04-17T12:39:00.419Z,19.67
2023-04-17T12:41:27.222Z,18.70
2023-04-17T12:43:55.186Z,20.23
2023-04-17T12:46:21.825Z,20.05
2023-04-17T12:48:48.312Z,19.98
2023-04-17T12:51:14.827Z,22.52
2023-04-17T12:53:41.262Z,20.48
2023-04-17T12:56:07.954Z,17.55
2023-04-17T12:58:34.452Z,17.30
2023-04-17T13:01:02.356Z,20.33
2023-04-17T13:03:28.968Z,21.30
2023-04-17T13:05:55.622Z,19.85
2023-04-17T13:08:22.098Z,21.35
2023-04-17T13:10:48.575Z,17.02
2023-04-17T13:13:15.237Z,21.05
2023-04-17T13:15:41.870Z,18.27
2023-04-17T13:18:09.751Z,13.10
2023-04-17T13:20:36.283Z,15.20
2023-04-17T13:23:02.741Z,14.25
2023-04-17T13:25:29.865Z,17.45
2023-04-17T13:27:56.400Z,13.80
2023-04-17T13:30:23.003Z,16.38
2023-04-17T13:32:49.556Z,16.58
2023-04-17T13:35:17.602Z,13.73
2023-04-17T13:37:44.100Z,13.57
2023-04-17T13:40:10.955Z,17.00
2023-04-17T13:42:37.691Z,12.00
2023-04-17T13:45:05.336Z,15.18
2023-04-17T13:47:31.844Z,12.40
2023-04-17T13:49:58.405Z,19.17
2023-04-17T13:52:26.363Z,14.48
2023-04-17T13:54:52.842Z,13.82
2023-04-17T13:57:19.704Z,16.08
2023-04-17T13:59:46.276Z,16.05
2023-04-17T14:02:12.881Z,15.55
2023-04-17T14:04:39.452Z,16.08
2023-04-17T14:07:06.218Z,12.55
2023-04-17T14:09:34.076Z,12.80
2023-04-17T14:12:00.701Z,12.48
2023-04-17T14:14:29.914Z,14.30
2023-04-17T14:16:56.613Z,14.02
2023-04-17T14:19:23.469Z,16.08
2023-04-17T14:21:49.901Z,13.80
2023-04-17T14:24:16.395Z,13.27
2023-04-17T14:26:44.294Z,15.98
2023-04-17T14:29:11.151Z,13.50
2023-04-17T14:31:37.919Z,23.83
2023-04-17T14:34:04.468Z,11.95
2023-04-17T14:36:30.980Z,15.02
2023-04-17T14:38:58.497Z,13.25
2023-04-17T14:41:25.076Z,11.15
2023-04-17T14:43:52.951Z,13.30
2023-04-17T14:46:19.475Z,15.60
2023-04-17T14:48:54.783Z,14.50
2023-04-17T14:51:22.657Z,14.27
2023-04-17T14:53:49.195Z,13.20
2023-04-17T14:56:16.034Z,15.18
2023-04-17T14:58:43.089Z,14.35
2023-04-17T15:01:10.982Z,15.27
2023-04-17T15:03:37.640Z,12.90
2023-04-17T15:06:04.482Z,12.82
2023-04-17T15:08:31.026Z,11.73
2023-04-17T15:10:57.784Z,12.25
2023-04-17T15:13:24.264Z,14.85
2023-04-17T15:15:50.761Z,13.80
2023-04-17T15:18:18.609Z,12.23
2023-04-17T15:20:45.147Z,11.00
2023-04-17T15:23:11.614Z,15.02
2023-04-17T15:25:38.119Z,10.43
2023-04-17T15:28:04.700Z,13.93
2023-04-17T15:30:31.201Z,12.43
2023-04-17T15:32:57.730Z,11.23
2023-04-17T15:35:25.611Z,11.38
2023-04-17T15:37:52.090Z,11.20
2023-04-17T15:40:18.646Z,11.57
2023-04-17T15:42:45.186Z,12.98
2023-04-17T15:45:11.868Z,11.23
2023-04-17T15:47:38.423Z,13.73
2023-04-17T15:50:06.080Z,12.20
2023-04-17T15:52:33.919Z,16.52
2023-04-17T15:55:00.409Z,12.43
2023-04-17T15:57:26.932Z,12.95
2023-04-17T15:59:53.417Z,14.48
2023-04-17T16:02:20.083Z,13.90
2023-04-17T16:04:46.974Z,11.77
2023-04-17T16:07:13.612Z,16.15
2023-04-17T16:09:41.604Z,13.93
2023-04-17T16:12:10.322Z,12.23
2023-04-17T16:14:37.175Z,11.75
2023-04-17T16:17:03.945Z,14.30
2023-04-17T16:19:30.728Z,11.85
2023-04-17T16:21:57.264Z,14.57
2023-04-17T16:24:24.746Z,14.73
2023-04-17T16:26:54.922Z,16.08
2023-04-17T16:29:21.492Z,11.63
2023-04-17T16:31:48.110Z,12.85
2023-04-17T16:34:14.715Z,10.00
2023-04-17T16:36:45.151Z,16.05
2023-04-17T16:39:12.718Z,12.90
2023-04-17T16:41:39.674Z,11.00
2023-04-17T16:44:07.569Z,17.45
2023-04-17T16:46:55.280Z,12.82
2023-04-17T16:49:20.603Z,16.92
2023-04-17T16:51:47.193Z,12.48
2023-04-17T16:54:13.843Z,14.75
2023-04-17T16:56:40.478Z,13.43
2023-04-17T16:59:08.359Z,15.95
2023-04-17T17:01:35.057Z,12.20
2023-04-17T17:04:01.849Z,14.43
2023-04-17T17:06:28.537Z,14.85
2023-04-17T17:08:55.676Z,15.00
2023-04-17T17:11:22.656Z,13.35
2023-04-17T17:13:51.894Z,13.38
2023-04-17T17:16:20.942Z,11.98
2023-04-17T17:18:48.232Z,13.18
2023-04-17T17:21:15.138Z,12.50
2023-04-17T17:23:41.864Z,12.38
2023-04-17T17:26:08.437Z,17.98
2023-04-17T17:28:35.051Z,9.95
2023-04-17T17:31:02.454Z,13.60
2023-04-17T17:33:32.262Z,13.75
2023-04-17T17:35:59.367Z,10.77
2023-04-17T17:38:26.033Z,15.15
2023-04-17T17:40:52.546Z,11.77
2023-04-17T17:43:19.033Z,11.25
2023-04-17T17:45:45.808Z,11.82
2023-04-17T17:48:12.344Z,10.95
2023-04-17T17:50:40.193Z,11.07
2023-04-17T17:53:06.709Z,10.07
2023-04-17T17:55:33.252Z,10.75
2023-04-17T17:57:59.779Z,14.98
2023-04-17T18:00:26.407Z,11.50
2023-04-17T18:02:53.088Z,11.60
2023-04-17T18:05:19.749Z,11.15
2023-04-17T18:07:47.694Z,9.85
2023-04-17T18:10:14.440Z,11.30
2023-04-17T18:12:40.945Z,11.82
2023-04-17T18:15:08.578Z,11.85
2023-04-17T18:17:35.220Z,10.88
2023-04-17T18:20:01.710Z,10.55
2023-04-17T18:22:28.243Z,12.60
2023-04-17T18:24:56.093Z,11.32
2023-04-17T18:27:22.770Z,15.05
2023-04-17T18:29:49.705Z,12.18
2023-04-17T18:32:16.225Z,11.63
2023-04-17T18:34:42.720Z,12.85
2023-04-17T18:37:09.286Z,11.70
2023-04-17T18:39:35.796Z,10.85
2023-04-17T18:42:03.867Z,10.70
2023-04-17T18:44:30.344Z,13.02
2023-04-17T18:46:56.891Z,12.63
2023-04-17T18:49:23.412Z,13.00
2023-04-17T18:51:49.912Z,15.23
2023-04-17T18:54:16.536Z,15.40
2023-04-17T18:56:43.378Z,16.67
2023-04-17T18:59:11.458Z,14.82
2023-04-17T19:01:38.148Z,11.88
2023-04-17T19:04:04.696Z,12.65
2023-04-17T19:06:31.237Z,13.23
2023-04-17T19:08:57.739Z,12.93
2023-04-17T19:11:24.626Z,11.77
2023-04-17T19:13:51.160Z,13.57
2023-04-17T19:16:19.029Z,13.07
2023-04-17T19:18:45.639Z,12.13
2023-04-17T19:21:12.097Z,10.93
2023-04-17T19:23:38.560Z,11.57
2023-04-17T19:26:05.074Z,12.60
2023-04-17T19:28:31.548Z,13.68
2023-04-17T19:30:58.079Z,12.68
2023-04-17T19:33:25.969Z,12.25
2023-04-17T19:35:52.460Z,15.55
2023-04-17T19:38:18.966Z,14.45
2023-04-17T19:40:47.164Z,17.05
2023-04-17T19:43:13.664Z,12.13
2023-04-17T19:45:40.221Z,16.48
2023-04-17T19:48:06.797Z,14.02
2023-04-17T19:50:34.649Z,12.32
2023-04-17T19:53:01.176Z,12.40
2023-04-17T19:55:27.654Z,12.85
2023-04-17T19:57:54.105Z,13.52
2023-04-17T20:00:20.572Z,14.38
2023-04-17T20:02:47.294Z,12.93
2023-04-17T20:05:13.938Z,14.38
2023-04-17T20:07:41.776Z,12.90
2023-04-17T20:10:08.901Z,14.07
2023-04-17T20:12:35.346Z,14.18
2023-04-17T20:15:01.813Z,11.48
2023-04-17T20:17:28.308Z,14.77
2023-04-17T20:19:54.832Z,12.32
2023-04-17T20:22:21.286Z,13.93
2023-04-17T20:24:49.105Z,15.43
2023-04-17T20:27:15.605Z,16.27
2023-04-17T20:29:42.087Z,12.75
2023-04-17T20:32:08.629Z,15.55
2023-04-17T20:34:35.115Z,14.00
2023-04-17T20:37:01.680Z,14.57
2023-04-17T20:39:28.394Z,19.13
2023-04-17T20:41:56.406Z,15.13
2023-04-17T20:44:22.911Z,13.25
2023-04-17T20:46:49.564Z,13.32
2023-04-17T20:49:16.118Z,15.15
2023-04-17T20:51:42.633Z,16.10
2023-04-17T20:54:09.127Z,16.23
2023-04-17T20:56:35.600Z,11.85
2023-04-17T20:59:03.430Z,14.23
2023-04-17T21:01:29.945Z,14.00
2023-04-17T21:03:56.552Z,13.65
2023-04-17T21:06:23.160Z,13.52
2023-04-17T21:08:49.658Z,13.05
2023-04-17T21:11:16.158Z,12.10
2023-04-17T21:13:42.635Z,14.63
2023-04-17T21:16:11.441Z,13.20
2023-04-17T21:18:38.104Z,11.98
2023-04-17T21:21:04.989Z,10.63
2023-04-17T21:23:31.586Z,12.02
2023-04-17T21:25:58.110Z,12.55
2023-04-17T21:28:24.658Z,8.98
2023-04-17T21:30:51.149Z,9.75
2023-04-17T21:33:19.012Z,10.20
2023-04-17T21:35:45.608Z,10.80
2023-04-17T21:38:12.115Z,11.38
2023-04-17T21:40:50.227Z,11.68
2023-04-17T21:43:17.730Z,12.18
2023-04-17T21:45:44.248Z,8.13
2023-04-17T21:48:10.729Z,10.88
2023-04-17T21:50:38.528Z,10.38
2023-04-17T21:53:05.015Z,9.07
2023-04-17T21:55:31.528Z,10.40
2023-04-17T21:57:58.034Z,9.13
2023-04-17T22:00:24.700Z,10.88
2023-04-17T22:02:51.315Z,11.60
2023-04-17T22:05:17.936Z,13.43
2023-04-17T22:07:54.466Z,12.60
2023-04-17T22:10:21.967Z,10.45
2023-04-17T22:12:48.445Z,11.48
2023-04-17T22:15:14.932Z,10.10
2023-04-17T22:17:41.492Z,8.95
2023-04-17T22:20:09.340Z,10.43
2023-04-17T22:22:35.827Z,12.32
2023-04-17T22:25:04.173Z,9.68
2023-04-17T22:27:30.695Z,12.00
2023-04-17T22:29:57.137Z,11.60
2023-04-17T22:32:23.784Z,10.18
2023-04-17T22:34:50.234Z,10.48
2023-04-17T22:37:16.767Z,9.93
2023-04-17T22:39:43.249Z,11.80
2023-04-17T22:42:11.029Z,12.35
2023-04-17T22:44:37.491Z,13.57
2023-04-17T22:47:04.090Z,11.30
2023-04-17T22:49:30.548Z,11.57
2023-04-17T22:51:56.979Z,11.43
2023-04-17T22:54:23.582Z,9.15
2023-04-17T22:56:50.090Z,11.98
2023-04-17T22:59:17.865Z,12.05
2023-04-17T23:01:44.312Z,11.77
2023-04-17T23:04:10.925Z,12.10
2023-04-17T23:06:37.511Z,12.85
2023-04-17T23:09:04.024Z,12.82
2023-04-17T23:11:31.417Z,12.20
2023-04-17T23:13:57.902Z,11.35
2023-04-17T23:16:25.903Z,12.55
2023-04-17T23:18:52.398Z,9.13
2023-04-17T23:21:18.838Z,12.02
2023-04-17T23:23:48.050Z,9.88
2023-04-17T23:26:15.011Z,10.82
2023-04-17T23:28:41.527Z,14.40
2023-04-17T23:31:08.032Z,13.00
2023-04-17T23:33:35.898Z,14.15
2023-04-17T23:36:02.532Z,11.07
2023-04-17T23:38:29.122Z,9.57
2023-04-17T23:40:55.595Z,12.65
2023-04-17T23:43:22.104Z,12.07
2023-04-17T23:45:48.604Z,13.13
2023-04-17T23:48:15.182Z,11.18
2023-04-17T23:50:43.982Z,12.80
2023-04-17T23:53:10.458Z,12.98
2023-04-17T23:55:36.928Z,10.75
2023-04-17T23:58:03.407Z,10.32
